Northeast Iowa Regional Airport
KCCY : now visible

Airfield :











YOU CAN JOIN US ON...

 
LOGIN :

Register | Disclaimer

   EN    FR    IT 

 









Legend :    VFR   Marginal VFR   IFR   Intensive IFR   Very Intensive IFR
Visi :
Ceiling :
>= 8 km
>= 3000ft
5 to 8 km
1000 to 3000 ft
1500m to 5 km
500 to 1000 ft
800 to 1500m
200 to 500 ft
< 800m
< 200 ft
Symbols :   Thunderstorms  Fog  Heavy snow  Heavy precipitations  Wind > 20 kt






- Airport Elevation : 1125 ft


KCCY - Northeast Iowa Regional

CURRENT METAR :
  • 041535Z AUTO VRB04KT 10SM CLR 25/16 A3016 RMK AO2

EXPIRED METARs :
  • 041515Z AUTO 00000KT 10SM CLR 24/16 A3015 RMK AO2
  • 041455Z AUTO 00000KT 9SM CLR 23/16 A3016 RMK AO2
  • 041435Z AUTO 00000KT 10SM CLR 22/15 A3016 RMK AO2
  • 041415Z AUTO 00000KT 8SM CLR 21/16 A3016 RMK AO2
  • 041355Z AUTO 00000KT 7SM CLR 20/16 A3016 RMK AO2
  • 041335Z AUTO 00000KT 8SM CLR 19/16 A3016 RMK AO2
  • 041315Z AUTO 00000KT 8SM CLR 18/16 A3016 RMK AO2
  • 041255Z AUTO 00000KT 7SM CLR 17/15 A3016 RMK AO2

TAF N/A
KZMP FIR / North America



MET'MAP, your aeronautical weather chart ! - Copyright ORBIFLY December 2007 - Disclaimer

ORBIFLY MET'MAP TEAM :

Programming & Development : Alexandra Zaïnal
Concept & original design : Baudouin d'Aumeries
Assistance for programming : Marc-Olivier Méhu
Technical & hardware support : Manuel Goepfert

Contact : metmap@orbifly.com




SOURCES & CREDITS :

   NOAA       Earth
Advisory